CheckWX is a tool to help pilots better visualize weather data.  It is not intended as a substitute for an official pre-flight weather briefing.

19:02:50 UTC

KOCF METAR
Ocala International-Jim Taylor Field Airport
Ocala, Florida, USA
Current

12 mins ago

KOCF 221851Z 13006KT 10SM SCT090 29/18 A3014 RMK AO2 SLP208 T02940178 $
Observed
Feb-22 @ 18:51 UTC
Wind
  • 130° at 6 KTS
Visibility
10 SM
Flight Rules
VFR
Cloud Levels
  • Scattered at 9,000' AGL
Temperature
29°C / 84°F
Dewpoint
18°C / 64°F
Humidity
51%
Altimeter
30.14" Hg
Pressure
1020.8 hPa
Previous

1 hour ago

KOCF 221751Z 17007KT 10SM FEW041 SCT095 28/19 A3018 RMK AO2 SLP221 6//// T02830189 10294 20200 58008 $
Observed
Feb-22 @ 17:51 UTC
Wind
  • 170° at 7 KTS
Visibility
10 SM
Flight Rules
VFR
Cloud Levels
  • Few at 4,100' AGL
  • Scattered at 9,500' AGL
Temperature
28°C / 82°F
Dewpoint
19°C / 66°F
Humidity
58%
Altimeter
30.18" Hg
Pressure
1022.1 hPa
Previous

2 hours ago

KOCF 221651Z 13004KT 10SM BKN030 OVC070 28/19 A3020 RMK AO2 SLP227 T02780194 $
Observed
Feb-22 @ 16:51 UTC
Wind
  • 130° at 4 KTS
Visibility
10 SM
Flight Rules
MVFR
Cloud Levels
  • Broken at 3,000' AGL
  • Overcast at 7,000' AGL
Temperature
28°C / 82°F
Dewpoint
19°C / 66°F
Humidity
58%
Altimeter
30.2" Hg
Pressure
1022.7 hPa